Bluff City, KS (67018)

10:35 AM CST on March 03, 2015 (GMT -0600)
Anthony Medical Center | Change Station
CLOSE
Current Station
Personal Weather Station
Location: Anthony, KS
Elevation: 1355 ft
Nearby Weather Stations

Elev 1355 ft 37.16 °N, 98.02 °W | Updated 41 seconds ago

Clear
Clear
43.7 °F
Feels Like 40 °F
N
6.0
Wind Variable Wind from West
Gusts 6.0 mph

Today
High -- | Low -- °F
--% Chance of Precip.
Yesterday
High -- | Low -- °F
Precip. -- in
7:00 AM 6:27 PM
Waxing Gibbous, 96% visible
Pressure 29.85 in
Visibility 9.0 miles
Clouds Clear
Windchill 40 °F
Dew Point 38 °F
Humidity 81%
Rainfall 0.00 in
Snow Depth Not available.
UV 3 out of 12
Pollen 2.80 out of 12
Air Quality Not available.
Flu Activity Not available.
METAR KWLD 031554Z AUTO 21020KT 9SM CLR 06/03 A2982 RMK AO2 PK WND 21027/1508 SLP106 T00560033

More Conditions Fewer Conditions

Pressure 29.85 in
Visibility 9.0 miles
Clouds Clear
Windchill 40 °F
Dew Point 38 °F
Humidity 81%
Rainfall 0.00 in
Snow Depth Not available.
UV 3 out of 12
Pollen 2.80 out of 12
Air Quality Not available.
Flu Activity Not available.
METAR KWLD 031554Z AUTO 21020KT 9SM CLR 06/03 A2982 RMK AO2 PK WND 21027/1508 SLP106 T00560033

More Conditions Fewer Conditions

10-Day Weather Forecast

Almanac

Astronomy

Mar. 03, 2015 Rise Set
Actual Time
Civil Twilight
Nautical Twilight
Astronomical Twilight
Moon
Length of Visible Light
Length of Day
Tomorrow will be .
, % of the Moon is Illuminated

Today's Extremes

State Highs State Lows

Community

WunderPhotos

Upload Photos

1,802,164 photos uploaded!

WunderBlogs® & News

Nearby

Air Quality

  Air Quality AQ Index Pollutant
Not available.

Snow Depth

Station Depth Elevation

Earthquake Activity

City Distance Mag. Time & Date
Minimum magnitude displayed is 2.5.

Coastal Water Temperatures

Place Temperature

Nearby Weather Stations